Time;durP1;ratioP1;P1;durP2;ratioP2;P2;SDS_P1;SDS_P2;PMS_P1;PMS_P2;Temp;Humidity;BMP_temperature;BMP_pressure;BME280_temperature;BME280_humidity;BME280_pressure;Samples;Min_cycle;Max_cycle;Signal;HPM_P1;HPM_P2
2022/10/03 00:02:23;;;;;;;9.37;9.07;;;10.60;99.90;;;;;;5160486;27;20243;-79
2022/10/03 00:05:17;;;;;;;9.07;8.77;;;10.50;99.90;;;;;;5159555;27;20247;-80
2022/10/03 00:08:09;;;;;;;9.30;9.00;;;10.50;99.90;;;;;;5157241;27;20270;-80
2022/10/03 00:10:55;;;;;;;9.00;8.70;;;10.50;99.90;;;;;;5162857;27;20242;-79
2022/10/03 00:13:40;;;;;;;9.00;8.70;;;10.50;99.90;;;;;;5164037;27;20257;-79
2022/10/03 00:16:18;;;;;;;9.20;8.90;;;10.50;99.90;;;;;;5162856;27;20219;-79
2022/10/03 00:18:56;;;;;;;9.17;8.87;;;10.50;99.90;;;;;;5164264;27;20280;-79
2022/10/03 00:21:43;;;;;;;9.10;8.80;;;10.50;99.90;;;;;;5163964;27;20236;-79
2022/10/03 00:24:24;;;;;;;8.97;8.67;;;10.40;99.90;;;;;;5164193;27;20216;-79
2022/10/03 00:26:58;;;;;;;9.10;8.80;;;10.40;99.90;;;;;;5163321;27;20227;-79
2022/10/03 00:29:50;;;;;;;9.33;9.03;;;10.40;99.90;;;;;;5164003;27;20239;-79
2022/10/03 00:32:42;;;;;;;9.20;8.90;;;10.40;99.90;;;;;;5163800;27;20232;-78
2022/10/03 00:35:41;;;;;;;9.00;8.70;;;10.40;99.90;;;;;;5163941;27;20281;-79
2022/10/03 00:38:40;;;;;;;9.10;8.80;;;10.40;99.90;;;;;;5163372;27;20231;-79
2022/10/03 00:41:30;;;;;;;9.10;8.80;;;10.40;99.90;;;;;;5164783;27;20275;-77
2022/10/03 00:44:44;;;;;;;9.23;8.93;;;10.40;99.90;;;;;;5181646;27;20239;-78
2022/10/03 00:47:50;;;;;;;9.20;8.90;;;10.30;99.90;;;;;;5171459;27;20233;-77
2022/10/03 00:50:47;;;;;;;9.20;8.90;;;10.30;99.90;;;;;;5168329;27;20230;-79
2022/10/03 00:53:48;;;;;;;9.10;8.80;;;10.30;99.90;;;;;;5162862;27;20255;-79
2022/10/03 00:56:50;;;;;;;9.23;8.93;;;10.30;99.90;;;;;;5164007;27;20235;-79
2022/10/03 00:59:42;;;;;;;9.30;9.00;;;10.20;99.90;;;;;;5164164;27;20309;-79
2022/10/03 01:02:36;;;;;;;9.17;8.87;;;10.20;99.90;;;;;;5163171;27;20330;-78
2022/10/03 01:05:16;;;;;;;9.10;8.80;;;10.20;99.90;;;;;;5162365;27;20269;-78
2022/10/03 01:08:09;;;;;;;9.40;9.10;;;10.20;99.90;;;;;;5164033;27;20231;-79
2022/10/03 01:10:51;;;;;;;9.10;8.80;;;10.20;99.90;;;;;;5163148;27;20322;-79
2022/10/03 01:13:37;;;;;;;9.03;8.73;;;10.20;99.90;;;;;;5166272;27;20251;-78
2022/10/03 01:16:19;;;;;;;9.20;8.90;;;10.20;99.90;;;;;;5164139;27;20238;-80
2022/10/03 01:19:02;;;;;;;9.20;8.90;;;10.20;99.90;;;;;;5163053;27;20234;-79
2022/10/03 01:21:41;;;;;;;9.27;8.97;;;10.20;99.90;;;;;;5161172;27;20227;-80
2022/10/03 01:24:51;;;;;;;9.30;9.00;;;10.20;99.90;;;;;;5162256;27;20223;-79
2022/10/03 01:27:30;;;;;;;9.47;9.17;;;10.20;99.90;;;;;;5162667;27;20299;-79
2022/10/03 01:30:21;;;;;;;9.23;8.93;;;10.20;99.90;;;;;;5162597;27;20271;-79
2022/10/03 01:32:57;;;;;;;9.10;8.80;;;10.20;99.90;;;;;;5162863;27;20732;-80
2022/10/03 01:35:36;;;;;;;9.10;8.80;;;10.20;99.90;;;;;;5162003;27;20261;-80
2022/10/03 01:38:19;;;;;;;9.60;9.30;;;10.10;99.90;;;;;;5162497;27;20269;-80
2022/10/03 01:40:57;;;;;;;9.23;8.93;;;10.10;99.90;;;;;;5162436;27;20292;-79
2022/10/03 01:43:37;;;;;;;9.40;9.10;;;10.10;99.90;;;;;;5162714;27;20233;-80
2022/10/03 01:46:18;;;;;;;9.23;8.93;;;10.10;99.90;;;;;;5162045;27;20251;-79
2022/10/03 01:48:59;;;;;;;8.90;8.60;;;10.10;99.90;;;;;;5162656;27;20227;-80
2022/10/03 01:51:34;;;;;;;9.30;9.00;;;10.10;99.90;;;;;;5162367;27;20238;-80
2022/10/03 01:54:16;;;;;;;9.30;9.00;;;10.00;99.90;;;;;;5163352;27;20211;-80
2022/10/03 01:56:53;;;;;;;9.57;9.27;;;10.00;99.90;;;;;;5167535;27;20231;-80
2022/10/03 01:59:31;;;;;;;9.20;8.90;;;10.00;99.90;;;;;;5166371;27;20231;-79
2022/10/03 02:02:08;;;;;;;9.40;9.10;;;9.90;99.90;;;;;;5160979;27;20241;-79
2022/10/03 02:04:46;;;;;;;9.40;9.10;;;9.90;99.90;;;;;;5161143;27;20233;-79
2022/10/03 02:07:26;;;;;;;9.37;9.07;;;9.90;99.90;;;;;;5160899;27;20321;-79
2022/10/03 02:10:07;;;;;;;9.07;8.77;;;9.90;99.90;;;;;;5160958;27;20239;-79
2022/10/03 02:12:40;;;;;;;9.20;8.90;;;9.80;99.90;;;;;;5161332;27;20222;-79
2022/10/03 02:15:19;;;;;;;9.23;8.93;;;9.90;99.90;;;;;;5142206;27;20228;-79
2022/10/03 02:17:55;;;;;;;9.33;9.03;;;9.80;99.90;;;;;;5156169;27;20231;-79
2022/10/03 02:20:35;;;;;;;9.10;8.80;;;9.90;99.90;;;;;;5120850;28;20225;-79
2022/10/03 02:23:24;;;;;;;9.00;8.70;;;9.90;99.90;;;;;;5120576;28;20342;-79
2022/10/03 02:26:04;;;;;;;9.07;8.77;;;9.80;99.90;;;;;;5119580;28;20225;-79
2022/10/03 02:29:13;;;;;;;9.10;8.80;;;9.80;99.90;;;;;;5120429;28;20315;-79
2022/10/03 02:32:15;;;;;;;9.00;8.70;;;9.80;99.90;;;;;;5120304;28;20292;-79
2022/10/03 02:35:36;;;;;;;8.93;8.63;;;9.80;99.90;;;;;;5120358;28;20232;-79
2022/10/03 02:38:40;;;;;;;9.00;8.70;;;9.70;99.90;;;;;;5065176;28;20273;-79
2022/10/03 02:41:45;;;;;;;9.10;8.80;;;9.70;99.90;;;;;;5116965;28;20244;-79
2022/10/03 02:45:09;;;;;;;9.07;8.77;;;9.70;99.90;;;;;;5121430;28;20331;-78
2022/10/03 02:48:25;;;;;;;9.20;8.90;;;9.70;99.90;;;;;;5043444;28;20292;-78
2022/10/03 02:51:39;;;;;;;9.20;8.90;;;9.70;99.90;;;;;;5100540;28;20208;-78
2022/10/03 02:55:00;;;;;;;8.80;8.50;;;9.70;99.90;;;;;;5130869;28;20262;-79
2022/10/03 02:58:08;;;;;;;9.03;8.73;;;9.60;99.90;;;;;;5130183;28;20254;-78
2022/10/03 03:01:10;;;;;;;9.03;8.73;;;9.70;99.90;;;;;;5129960;28;20300;-78
2022/10/03 03:04:23;;;;;;;9.07;8.77;;;9.60;99.90;;;;;;5128618;28;20227;-79
2022/10/03 03:07:13;;;;;;;9.00;8.70;;;9.60;99.90;;;;;;5129272;27;20235;-78
2022/10/03 03:10:28;;;;;;;9.17;8.87;;;9.70;99.90;;;;;;5127821;28;20264;-78
2022/10/03 03:13:35;;;;;;;9.10;8.80;;;9.60;99.90;;;;;;5123442;28;20233;-78
2022/10/03 03:16:38;;;;;;;9.00;8.70;;;9.70;99.90;;;;;;5119535;28;20225;-78
2022/10/03 03:19:27;;;;;;;9.10;8.80;;;9.70;99.90;;;;;;5120170;28;20212;-79
2022/10/03 03:22:05;;;;;;;9.30;9.00;;;9.70;99.90;;;;;;5120325;28;20256;-79
2022/10/03 03:25:03;;;;;;;9.17;8.87;;;9.70;99.90;;;;;;5119547;28;20227;-79
2022/10/03 03:27:49;;;;;;;9.20;8.90;;;9.70;99.90;;;;;;5133071;27;20263;-78
2022/10/03 03:30:21;;;;;;;9.30;9.00;;;9.70;99.90;;;;;;5140669;27;20238;-78
2022/10/03 03:33:06;;;;;;;9.30;9.00;;;9.80;99.90;;;;;;5143581;27;20327;-78
2022/10/03 03:35:53;;;;;;;9.47;9.17;;;9.80;99.90;;;;;;5140716;27;20224;-79
2022/10/03 03:38:32;;;;;;;9.40;9.10;;;9.70;99.90;;;;;;5139946;27;20228;-79
2022/10/03 03:41:19;;;;;;;9.07;8.77;;;9.80;99.90;;;;;;5140151;27;20242;-79
2022/10/03 03:44:05;;;;;;;9.37;9.07;;;9.70;99.90;;;;;;5140509;27;20212;-79
2022/10/03 03:46:50;;;;;;;9.43;9.13;;;9.70;99.90;;;;;;5143566;27;20223;-79
2022/10/03 03:49:42;;;;;;;9.20;8.90;;;9.70;99.90;;;;;;5144096;27;20232;-79
2022/10/03 03:52:35;;;;;;;9.40;9.10;;;9.70;99.90;;;;;;5143758;27;20232;-79
2022/10/03 03:55:29;;;;;;;9.30;9.00;;;9.70;99.90;;;;;;5143438;27;20232;-79
2022/10/03 03:58:17;;;;;;;9.30;9.00;;;9.60;99.90;;;;;;5143582;27;20826;-79
2022/10/03 04:01:10;;;;;;;9.20;8.90;;;9.60;99.90;;;;;;5143252;27;20259;-79
2022/10/03 04:03:52;;;;;;;9.57;9.27;;;9.60;99.90;;;;;;5143883;27;20232;-79
2022/10/03 04:06:45;;;;;;;9.30;9.00;;;9.50;99.90;;;;;;5144000;27;20230;-79
2022/10/03 04:09:42;;;;;;;9.30;9.00;;;9.50;99.90;;;;;;5144404;27;20250;-78
2022/10/03 04:12:26;;;;;;;9.40;9.10;;;9.50;99.90;;;;;;5144340;27;20281;-79
2022/10/03 04:15:13;;;;;;;9.30;9.00;;;9.40;99.90;;;;;;5143293;27;20239;-78
2022/10/03 04:21:27;;;;;;;9.53;9.23;;;9.40;99.90;;;;;;5164350;27;20215;-76
2022/10/03 04:24:22;;;;;;;9.43;9.13;;;9.40;99.90;;;;;;5179364;27;20238;-76
2022/10/03 04:27:08;;;;;;;9.53;9.23;;;9.40;99.90;;;;;;5178218;27;20243;-77
2022/10/03 04:29:56;;;;;;;9.30;9.00;;;9.40;99.90;;;;;;5169519;27;20227;-78
2022/10/03 04:32:48;;;;;;;9.50;9.20;;;9.30;99.90;;;;;;5165769;27;20234;-79
2022/10/03 04:35:57;;;;;;;9.43;9.13;;;9.30;99.90;;;;;;5163284;27;20219;-79
2022/10/03 04:38:46;;;;;;;9.60;9.30;;;9.30;99.90;;;;;;5144160;27;20232;-78
2022/10/03 04:41:29;;;;;;;9.60;9.30;;;9.30;99.90;;;;;;5148743;27;20236;-77
2022/10/03 04:44:10;;;;;;;9.30;9.00;;;9.30;99.90;;;;;;5145807;27;20239;-78
2022/10/03 04:46:49;;;;;;;9.60;9.30;;;9.40;99.90;;;;;;5143629;27;20297;-79
2022/10/03 04:49:25;;;;;;;9.27;8.97;;;9.40;99.90;;;;;;5143537;27;20228;-79
2022/10/03 04:52:00;;;;;;;9.50;9.20;;;9.30;99.90;;;;;;5146892;27;20239;-78
2022/10/03 04:54:46;;;;;;;9.33;9.03;;;9.30;99.90;;;;;;5153460;27;20224;-79
2022/10/03 04:57:28;;;;;;;9.40;9.10;;;9.20;99.90;;;;;;5150436;27;20244;-79
2022/10/03 05:00:13;;;;;;;9.33;9.03;;;9.20;99.90;;;;;;5149577;27;20258;-79
2022/10/03 05:02:54;;;;;;;9.70;9.40;;;9.30;99.90;;;;;;5153844;27;20232;-79
2022/10/03 05:05:45;;;;;;;9.57;9.27;;;9.30;99.90;;;;;;5158867;27;20235;-79
2022/10/03 05:08:38;;;;;;;10.00;9.70;;;9.20;99.90;;;;;;5158349;27;20200;-77
2022/10/03 05:11:22;;;;;;;9.77;9.47;;;9.20;99.90;;;;;;5154021;27;20263;-78
2022/10/03 05:14:02;;;;;;;10.00;9.70;;;9.20;99.90;;;;;;5147796;27;20236;-78
2022/10/03 05:16:41;;;;;;;9.87;9.57;;;9.20;99.90;;;;;;5154276;27;20312;-78
2022/10/03 05:19:54;;;;;;;9.80;9.50;;;9.20;99.90;;;;;;5148520;27;20307;-79
2022/10/03 05:22:41;;;;;;;9.90;9.60;;;9.20;99.90;;;;;;5168104;27;20247;-77
2022/10/03 05:25:26;;;;;;;9.80;9.50;;;9.20;99.90;;;;;;5177961;27;20284;-78
2022/10/03 05:28:07;;;;;;;9.90;9.60;;;9.20;99.90;;;;;;5182617;27;20219;-77
2022/10/03 05:30:43;;;;;;;9.80;9.50;;;9.20;99.90;;;;;;5182421;27;20222;-77
2022/10/03 05:33:24;;;;;;;9.70;9.40;;;9.10;99.90;;;;;;5182240;27;20224;-78
2022/10/03 05:36:09;;;;;;;9.60;9.30;;;9.20;99.90;;;;;;5180486;27;20230;-77
2022/10/03 05:39:24;;;;;;;9.70;9.40;;;9.10;99.90;;;;;;5182899;27;20238;-77
2022/10/03 05:41:55;;;;;;;9.80;9.50;;;9.20;99.90;;;;;;5152536;27;20219;-77
2022/10/03 05:44:41;;;;;;;9.67;9.37;;;9.20;99.90;;;;;;5177838;27;20322;-77
2022/10/03 05:50:40;;;;;;;9.60;9.30;;;9.20;99.90;;;;;;5172207;27;20230;-77
2022/10/03 05:53:54;;;;;;;9.60;9.30;;;9.20;99.90;;;;;;5176055;27;20212;-77
2022/10/03 05:56:42;;;;;;;9.60;9.30;;;9.20;99.90;;;;;;5181639;27;20223;-77
2022/10/03 05:59:42;;;;;;;9.40;9.10;;;9.20;99.90;;;;;;5182062;27;20215;-77
2022/10/03 06:02:53;;;;;;;9.50;9.20;;;9.20;99.90;;;;;;5180973;27;20255;-81
2022/10/03 06:05:45;;;;;;;9.53;9.23;;;9.30;99.90;;;;;;5175609;27;20227;-80
2022/10/03 06:08:47;;;;;;;9.40;9.10;;;9.30;99.90;;;;;;5163238;27;20243;-80
2022/10/03 06:11:50;;;;;;;9.77;9.47;;;9.30;99.90;;;;;;5172825;27;20321;-81
2022/10/03 06:14:35;;;;;;;9.40;9.10;;;9.30;99.90;;;;;;5181437;27;20234;-81
2022/10/03 06:17:54;;;;;;;9.30;9.00;;;9.40;99.90;;;;;;5180023;27;20207;-82
2022/10/03 06:21:17;;;;;;;9.30;9.00;;;9.30;99.90;;;;;;5074425;28;20310;-81
2022/10/03 06:24:51;;;;;;;9.27;8.97;;;9.40;99.90;;;;;;5179046;27;20234;-79
2022/10/03 06:28:22;;;;;;;9.20;8.90;;;9.40;99.90;;;;;;5097961;27;20221;-80
2022/10/03 06:31:44;;;;;;;9.20;8.90;;;9.50;99.90;;;;;;5138782;27;20243;-80
2022/10/03 06:34:45;;;;;;;9.30;9.00;;;9.50;99.90;;;;;;5142442;27;20232;-80
2022/10/03 06:38:14;;;;;;;9.10;8.80;;;9.60;99.90;;;;;;5150083;27;20711;-80
2022/10/03 06:41:19;;;;;;;9.23;8.93;;;9.70;99.90;;;;;;5149592;27;20283;-81
2022/10/03 06:44:24;;;;;;;9.50;9.20;;;9.80;99.90;;;;;;5142291;27;20307;-81
2022/10/03 06:47:28;;;;;;;9.20;8.90;;;10.00;99.90;;;;;;5142460;27;20232;-80
2022/10/03 06:50:29;;;;;;;9.20;8.90;;;10.00;99.90;;;;;;5142283;27;20334;-81
2022/10/03 06:53:49;;;;;;;9.07;8.77;;;10.10;99.90;;;;;;5142369;27;20260;-81
2022/10/03 06:56:59;;;;;;;9.00;8.70;;;10.20;99.90;;;;;;5140635;27;20217;-82
2022/10/03 07:00:07;;;;;;;9.10;8.80;;;10.30;99.90;;;;;;5141413;27;20281;-82
2022/10/03 07:03:31;;;;;;;9.00;8.70;;;10.30;99.90;;;;;;5142754;27;20234;-82
2022/10/03 07:06:33;;;;;;;9.30;9.00;;;10.40;99.90;;;;;;5142381;27;20238;-80
2022/10/03 07:09:56;;;;;;;9.30;9.00;;;10.40;99.90;;;;;;5142136;27;20228;-82
2022/10/03 07:13:09;;;;;;;9.47;9.17;;;10.50;99.90;;;;;;5118378;27;20228;-81
2022/10/03 07:16:34;;;;;;;9.00;8.70;;;10.50;99.90;;;;;;5142514;27;20232;-82
2022/10/03 07:19:28;;;;;;;9.17;8.87;;;10.60;99.90;;;;;;5134334;27;20232;-81
2022/10/03 07:22:38;;;;;;;9.20;8.90;;;10.70;99.90;;;;;;5151297;27;20215;-81
2022/10/03 07:25:45;;;;;;;9.40;9.10;;;10.70;99.90;;;;;;5159355;27;20233;-82
2022/10/03 07:29:17;;;;;;;9.20;8.90;;;10.80;99.90;;;;;;5126789;28;20237;-82
2022/10/03 07:32:20;;;;;;;9.00;8.70;;;10.90;99.90;;;;;;5125445;28;20235;-82
2022/10/03 07:38:59;;;;;;;9.10;8.80;;;11.00;99.90;;;;;;5124958;28;20687;-82
2022/10/03 07:42:09;;;;;;;9.30;9.00;;;11.00;99.90;;;;;;5116107;27;20242;-83
2022/10/03 07:45:21;;;;;;;9.70;9.40;;;11.10;99.90;;;;;;5158142;27;20226;-82
2022/10/03 07:48:36;;;;;;;9.73;9.43;;;11.10;99.90;;;;;;5122575;28;20224;-83
2022/10/03 07:51:23;;;;;;;9.80;9.50;;;11.20;99.90;;;;;;5160371;27;20235;-82
2022/10/03 07:54:54;;;;;;;9.70;9.40;;;11.20;99.90;;;;;;5167046;27;20237;-82
2022/10/03 07:58:02;;;;;;;9.63;9.33;;;11.30;99.90;;;;;;5166365;27;20245;-81
2022/10/03 08:00:46;;;;;;;9.83;9.53;;;11.30;99.90;;;;;;5154285;27;20207;-82
2022/10/03 08:04:17;;;;;;;9.80;9.50;;;11.40;99.90;;;;;;5162487;27;20215;-81
2022/10/03 08:06:54;;;;;;;9.97;9.67;;;11.50;99.90;;;;;;5158321;27;20323;-82
2022/10/03 08:09:59;;;;;;;9.90;9.60;;;11.50;99.90;;;;;;5161630;27;20283;-81
2022/10/03 08:13:02;;;;;;;9.60;9.30;;;11.60;99.90;;;;;;5160794;27;20219;-82
2022/10/03 08:15:52;;;;;;;9.33;9.03;;;11.80;99.90;;;;;;5166612;27;20211;-82
2022/10/03 08:19:04;;;;;;;9.77;9.47;;;11.90;99.90;;;;;;5166663;27;20235;-81
2022/10/03 08:21:51;;;;;;;9.33;9.03;;;12.10;99.90;;;;;;5134207;27;20302;-81
2022/10/03 08:24:58;;;;;;;9.47;9.17;;;12.30;99.90;;;;;;5153317;27;20228;-81
2022/10/03 08:27:54;;;;;;;9.23;8.93;;;12.30;99.90;;;;;;5101704;27;20238;-81
2022/10/03 08:30:31;;;;;;;9.40;9.10;;;12.50;99.90;;;;;;5144164;27;20243;-80
2022/10/03 08:33:43;;;;;;;9.73;9.43;;;12.70;99.90;;;;;;5146448;27;20314;-80
2022/10/03 08:36:48;;;;;;;9.47;9.17;;;12.90;99.90;;;;;;5041932;28;20215;-81
2022/10/03 08:39:36;;;;;;;9.37;9.07;;;12.90;99.90;;;;;;5133317;27;20238;-80
2022/10/03 08:42:27;;;;;;;9.30;9.00;;;12.90;99.90;;;;;;5148935;27;20323;-80
2022/10/03 08:45:47;;;;;;;9.30;9.00;;;13.00;99.90;;;;;;5151963;27;20251;-82
2022/10/03 08:49:01;;;;;;;9.10;8.80;;;12.90;99.90;;;;;;5151553;27;20239;-83
2022/10/03 08:51:54;;;;;;;9.10;8.80;;;13.10;99.90;;;;;;5148888;27;20251;-82
2022/10/03 08:55:21;;;;;;;9.30;9.00;;;13.50;99.90;;;;;;5146458;27;20246;-81
2022/10/03 08:58:37;;;;;;;9.20;8.90;;;13.50;99.90;;;;;;5139108;27;20223;-80
2022/10/03 09:01:34;;;;;;;9.30;9.00;;;13.50;99.90;;;;;;5165426;27;20230;-82
2022/10/03 09:04:56;;;;;;;9.50;9.20;;;13.70;99.90;;;;;;5164978;27;20238;-80
2022/10/03 09:08:11;;;;;;;9.07;8.77;;;13.80;99.90;;;;;;5165448;27;20266;-79
2022/10/03 09:11:11;;;;;;;9.30;9.00;;;13.70;99.90;;;;;;5166542;27;20241;-79
2022/10/03 09:14:38;;;;;;;9.23;8.93;;;13.60;99.90;;;;;;5157115;27;20315;-79
2022/10/03 09:17:51;;;;;;;9.13;8.87;;;13.30;99.90;;;;;;5108681;27;20228;-81
2022/10/03 09:21:21;;;;;;;8.57;8.37;;;13.30;99.90;;;;;;5164594;27;20231;-82
2022/10/03 09:24:33;;;;;;;8.50;8.30;;;13.10;99.90;;;;;;5161505;27;20227;-81
2022/10/03 09:27:29;;;;;;;8.70;8.50;;;13.00;99.90;;;;;;5164856;27;20672;-81
2022/10/03 09:30:18;;;;;;;8.77;8.57;;;13.00;99.90;;;;;;5162541;27;20407;-78
2022/10/03 09:33:43;;;;;;;8.80;8.60;;;13.10;99.90;;;;;;5163647;27;20265;-79
2022/10/03 09:36:50;;;;;;;8.63;8.43;;;13.40;99.90;;;;;;5162195;27;20234;-78
2022/10/03 09:40:19;;;;;;;8.80;8.60;;;13.30;99.90;;;;;;5158794;27;20231;-80
2022/10/03 09:43:44;;;;;;;8.90;8.70;;;13.60;99.90;;;;;;5114565;27;20222;-79
2022/10/03 09:50:28;;;;;;;9.20;8.90;;;14.50;99.90;;;;;;5121161;27;20271;-80
2022/10/03 09:54:02;;;;;;;9.10;8.80;;;15.10;99.90;;;;;;5159754;27;20219;-79
2022/10/03 09:57:23;;;;;;;9.17;8.87;;;14.80;99.90;;;;;;5159766;27;20219;-79
2022/10/03 10:00:17;;;;;;;9.43;9.13;;;14.70;99.90;;;;;;5157923;27;20228;-79
2022/10/03 10:03:24;;;;;;;9.60;9.30;;;14.60;99.90;;;;;;5160295;27;20212;-80
2022/10/03 10:06:25;;;;;;;9.40;9.10;;;14.40;99.90;;;;;;5160159;27;20208;-79
2022/10/03 10:09:40;;;;;;;9.40;9.10;;;14.30;99.90;;;;;;5136057;27;20237;-79
2022/10/03 10:12:51;;;;;;;9.73;9.43;;;14.40;99.90;;;;;;5159073;27;20243;-81
2022/10/03 10:16:11;;;;;;;9.68;9.38;;;15.10;99.90;;;;;;5160859;27;20226;-82
2022/10/03 10:19:14;;;;;;;9.73;9.43;;;15.50;99.90;;;;;;5159152;27;20271;-82
2022/10/03 10:22:54;;;;;;;10.10;9.80;;;15.60;99.90;;;;;;5154299;27;20239;-82
2022/10/03 10:25:58;;;;;;;9.75;9.45;;;16.00;99.90;;;;;;5160198;27;20284;-82
2022/10/03 10:29:38;;;;;;;9.60;9.30;;;15.80;99.90;;;;;;5150674;27;20326;-83
2022/10/03 10:32:57;;;;;;;10.07;9.77;;;15.70;99.90;;;;;;5107324;27;20229;-81
2022/10/03 10:35:59;;;;;;;10.20;9.90;;;16.00;99.90;;;;;;5119278;27;20264;-81
2022/10/03 10:39:03;;;;;;;10.18;9.88;;;16.40;99.90;;;;;;5143818;27;20227;-82
2022/10/03 10:42:24;;;;;;;9.70;9.40;;;16.90;99.90;;;;;;5138716;27;20254;-82
2022/10/03 10:49:17;;;;;;;9.73;9.43;;;17.00;99.90;;;;;;5117719;27;20563;-80
2022/10/03 10:52:37;;;;;;;9.65;9.35;;;16.10;99.90;;;;;;5058705;28;20242;-83
2022/10/03 10:56:05;;;;;;;9.40;9.10;;;15.90;99.90;;;;;;5094482;28;20241;-81
2022/10/03 10:59:31;;;;;;;9.70;9.40;;;15.70;99.90;;;;;;5097994;28;20308;-81
2022/10/03 11:02:57;;;;;;;9.93;9.63;;;15.70;99.90;;;;;;5075274;28;20249;-80
2022/10/03 11:06:01;;;;;;;10.02;9.73;;;15.40;99.90;;;;;;5094755;28;20237;-81
2022/10/03 11:09:24;;;;;;;9.60;9.30;;;15.40;99.90;;;;;;5097874;28;20248;-81
2022/10/03 11:12:48;;;;;;;9.88;9.57;;;15.70;99.90;;;;;;5112832;28;20237;-82
2022/10/03 11:16:07;;;;;;;9.80;9.50;;;16.00;99.90;;;;;;5094278;27;20236;-83
2022/10/03 11:19:29;;;;;;;9.55;9.25;;;15.90;99.90;;;;;;5119668;27;20261;-83
2022/10/03 11:22:52;;;;;;;9.45;9.15;;;15.60;99.90;;;;;;5116561;28;20225;-83
2022/10/03 11:26:13;;;;;;;9.60;9.30;;;15.20;99.90;;;;;;5118319;27;20263;-82
2022/10/03 11:29:44;;;;;;;10.10;9.80;;;15.10;99.90;;;;;;5118103;27;21000;-83
2022/10/03 11:33:33;;;;;;;10.23;9.93;;;15.80;99.90;;;;;;5116943;27;20323;-82
2022/10/03 11:36:39;;;;;;;10.10;9.80;;;16.60;99.90;;;;;;5117791;28;20317;-82
2022/10/03 11:39:14;;;;;;;10.05;9.75;;;17.50;99.90;;;;;;5106942;27;20282;-83
2022/10/03 11:41:54;;;;;;;10.00;9.70;;;17.60;99.90;;;;;;5097284;28;20240;-82
2022/10/03 11:44:26;;;;;;;10.18;9.88;;;17.40;99.90;;;;;;5097185;28;20298;-83
2022/10/03 11:47:38;;;;;;;10.30;10.00;;;17.20;99.90;;;;;;5095727;28;20267;-83
2022/10/03 11:50:42;;;;;;;10.18;9.88;;;17.40;99.90;;;;;;5074131;28;20232;-83
2022/10/03 11:53:38;;;;;;;10.43;10.13;;;17.10;99.90;;;;;;5096615;28;20233;-83
2022/10/03 11:56:43;;;;;;;10.15;9.85;;;16.20;99.90;;;;;;5085846;28;20236;-83
2022/10/03 11:59:47;;;;;;;10.05;9.75;;;15.30;99.90;;;;;;5084844;28;20230;-82
2022/10/03 12:02:51;;;;;;;10.03;9.73;;;15.00;99.90;;;;;;5077322;28;20739;-83
2022/10/03 12:05:29;;;;;;;10.40;10.10;;;14.90;99.90;;;;;;5065152;28;20230;-83
2022/10/03 12:11:12;;;;;;;10.00;9.70;;;14.90;99.90;;;;;;5084145;28;20242;-82
2022/10/03 12:13:52;;;;;;;10.20;9.90;;;14.80;99.90;;;;;;5082465;28;20246;-82
2022/10/03 12:16:29;;;;;;;10.50;10.20;;;14.70;99.90;;;;;;5081808;28;20238;-82
2022/10/03 12:19:09;;;;;;;10.07;9.77;;;14.80;99.90;;;;;;5082014;28;20237;-82
2022/10/03 12:21:52;;;;;;;10.17;9.87;;;15.00;99.90;;;;;;5082158;28;20261;-83
2022/10/03 12:24:26;;;;;;;10.37;10.07;;;15.40;99.90;;;;;;5081760;28;20230;-83
2022/10/03 12:27:02;;;;;;;10.50;10.20;;;16.00;99.90;;;;;;5082053;28;20223;-83
2022/10/03 12:29:41;;;;;;;10.27;9.98;;;16.80;99.90;;;;;;5077686;28;20293;-83
2022/10/03 12:32:26;;;;;;;10.88;10.57;;;17.70;99.90;;;;;;5082314;28;20234;-83
2022/10/03 12:35:08;;;;;;;10.80;10.50;;;18.40;99.90;;;;;;5081119;28;20245;-82
2022/10/03 12:38:02;;;;;;;10.35;10.05;;;18.90;99.90;;;;;;5082370;28;20333;-82
2022/10/03 12:40:37;;;;;;;10.50;10.20;;;18.90;99.90;;;;;;5082142;28;20293;-81
2022/10/03 12:43:28;;;;;;;10.30;10.00;;;18.80;99.90;;;;;;5082462;28;20317;-81
2022/10/03 12:46:04;;;;;;;10.50;10.20;;;17.60;99.90;;;;;;5082821;28;20226;-81
2022/10/03 12:48:46;;;;;;;10.50;10.20;;;16.90;99.90;;;;;;5084268;28;20230;-82
2022/10/03 12:51:38;;;;;;;10.10;9.80;;;16.50;99.90;;;;;;5081825;28;20248;-81
2022/10/03 12:54:21;;;;;;;10.10;9.80;;;16.30;99.90;;;;;;5082124;28;20237;-81
2022/10/03 12:56:58;;;;;;;10.30;10.00;;;16.10;99.90;;;;;;5083088;28;20206;-80
2022/10/03 12:59:37;;;;;;;10.50;10.20;;;16.20;99.90;;;;;;5093201;28;20294;-82
2022/10/03 13:02:34;;;;;;;10.57;10.27;;;16.10;99.90;;;;;;5082518;28;20276;-82
2022/10/03 13:05:36;;;;;;;10.77;10.48;;;16.00;99.90;;;;;;5082161;28;20214;-82
2022/10/03 13:08:18;;;;;;;10.60;10.30;;;16.10;99.90;;;;;;5080522;28;20233;-81
2022/10/03 13:10:52;;;;;;;10.60;10.30;;;16.20;99.90;;;;;;5081235;28;20229;-82
2022/10/03 13:13:30;;;;;;;10.68;10.38;;;16.10;99.90;;;;;;5082055;28;20275;-82
2022/10/03 13:16:22;;;;;;;10.80;10.50;;;16.10;99.90;;;;;;5081566;28;20281;-82
2022/10/03 13:18:57;;;;;;;10.50;10.20;;;16.20;99.90;;;;;;5081620;28;20237;-82
2022/10/03 13:21:52;;;;;;;10.60;10.30;;;16.30;99.90;;;;;;5080280;28;20234;-82
2022/10/03 13:24:32;;;;;;;10.50;10.20;;;16.30;99.90;;;;;;5069596;28;20229;-82
2022/10/03 13:27:30;;;;;;;10.23;9.93;;;16.20;99.90;;;;;;5077631;28;20261;-82
2022/10/03 13:30:08;;;;;;;10.50;10.20;;;16.20;99.90;;;;;;5068479;28;20266;-81
2022/10/03 13:32:41;;;;;;;10.55;10.25;;;16.10;99.90;;;;;;5078430;28;20237;-82
2022/10/03 13:38:41;;;;;;;10.48;10.18;;;16.50;99.90;;;;;;5080455;28;20249;-82
2022/10/03 13:41:24;;;;;;;10.57;10.27;;;16.90;99.90;;;;;;5078564;28;20233;-80
2022/10/03 13:44:00;;;;;;;10.35;10.05;;;17.40;99.90;;;;;;5083113;28;20229;-84
2022/10/03 13:46:37;;;;;;;10.40;10.10;;;17.80;99.90;;;;;;5080755;28;20256;-79
2022/10/03 13:49:17;;;;;;;10.50;10.20;;;17.90;99.90;;;;;;5079137;28;20218;-79
2022/10/03 13:51:53;;;;;;;10.50;10.20;;;17.70;99.90;;;;;;5078378;28;20237;-82
2022/10/03 13:54:50;;;;;;;10.50;10.20;;;17.30;99.90;;;;;;5081330;28;20226;-83
2022/10/03 13:57:26;;;;;;;10.48;10.18;;;17.40;99.90;;;;;;5081745;28;20305;-82
2022/10/03 14:00:07;;;;;;;10.63;10.32;;;17.20;99.90;;;;;;5079335;28;20241;-83
2022/10/03 14:03:00;;;;;;;10.68;10.38;;;16.80;99.90;;;;;;5080274;28;20218;-80
2022/10/03 14:05:55;;;;;;;10.43;10.13;;;16.50;99.90;;;;;;5079937;28;20293;-81
2022/10/03 14:09:02;;;;;;;10.50;10.20;;;16.40;99.90;;;;;;5078142;28;20328;-80
2022/10/03 14:11:43;;;;;;;10.52;10.23;;;16.50;99.90;;;;;;5079075;28;20238;-81
2022/10/03 14:14:38;;;;;;;10.60;10.30;;;16.50;99.90;;;;;;5079655;28;20226;-80
2022/10/03 14:17:17;;;;;;;10.30;10.00;;;16.40;99.90;;;;;;5072896;28;20229;-80
2022/10/03 14:20:01;;;;;;;10.50;10.20;;;16.50;99.90;;;;;;5082566;28;20297;-80
2022/10/03 14:22:44;;;;;;;10.20;9.90;;;16.60;99.90;;;;;;5083189;28;20222;-82
2022/10/03 14:25:24;;;;;;;10.50;10.20;;;16.50;99.90;;;;;;5079701;28;20250;-81
2022/10/03 14:27:57;;;;;;;10.30;10.00;;;16.70;99.90;;;;;;5079120;28;20247;-81
2022/10/03 14:30:32;;;;;;;10.50;10.20;;;16.70;99.90;;;;;;5079388;28;20297;-80
2022/10/03 14:33:17;;;;;;;10.25;9.95;;;16.30;99.90;;;;;;5079276;28;20261;-82
2022/10/03 14:35:58;;;;;;;10.43;10.13;;;16.20;99.90;;;;;;5072125;28;20291;-80
2022/10/03 14:39:07;;;;;;;10.15;9.85;;;16.10;99.90;;;;;;5059004;28;20239;-81
2022/10/03 14:42:24;;;;;;;10.48;10.18;;;16.00;99.90;;;;;;5033964;28;20254;-81
2022/10/03 14:44:58;;;;;;;10.45;10.15;;;16.10;99.90;;;;;;5075279;28;20232;-81
2022/10/03 14:47:35;;;;;;;10.68;10.38;;;15.90;99.90;;;;;;5079148;28;20287;-81
2022/10/03 14:50:05;;;;;;;10.95;10.65;;;16.10;99.90;;;;;;5078832;28;20237;-81
2022/10/03 14:52:44;;;;;;;10.80;10.50;;;16.30;99.90;;;;;;5080123;28;20268;-81
2022/10/03 14:55:19;;;;;;;10.55;10.25;;;16.50;99.90;;;;;;5082057;28;20222;-82
2022/10/03 14:57:51;;;;;;;10.25;9.95;;;16.50;99.90;;;;;;5079637;28;20237;-82
2022/10/03 15:00:41;;;;;;;10.10;9.80;;;16.20;99.90;;;;;;5080602;28;20294;-82
2022/10/03 15:03:36;;;;;;;10.45;10.15;;;16.00;99.90;;;;;;5082142;28;20257;-82
2022/10/03 15:06:22;;;;;;;10.13;9.82;;;16.00;99.90;;;;;;5079659;28;20284;-82
2022/10/03 15:08:53;;;;;;;10.07;9.77;;;16.10;99.90;;;;;;5064702;28;20233;-81
2022/10/03 15:11:27;;;;;;;10.00;9.70;;;16.00;99.90;;;;;;5078481;28;20234;-81
2022/10/03 15:14:01;;;;;;;10.10;9.80;;;15.90;99.90;;;;;;5082240;28;20229;-81
2022/10/03 15:16:36;;;;;;;10.20;9.90;;;16.00;99.90;;;;;;5081788;28;20218;-81
2022/10/03 15:19:10;;;;;;;10.10;9.80;;;16.10;99.90;;;;;;5079915;28;20309;-81
2022/10/03 15:21:44;;;;;;;10.10;9.80;;;16.20;99.90;;;;;;5079912;28;20238;-81
2022/10/03 15:24:19;;;;;;;10.23;9.93;;;16.30;99.90;;;;;;5080460;28;20304;-82
2022/10/03 15:26:52;;;;;;;10.00;9.70;;;16.30;99.90;;;;;;5079202;28;20335;-81
2022/10/03 15:29:23;;;;;;;9.75;9.45;;;16.20;99.90;;;;;;5079871;28;20234;-81
2022/10/03 15:31:56;;;;;;;9.60;9.30;;;16.10;99.90;;;;;;5080202;28;20238;-81
2022/10/03 15:34:30;;;;;;;9.70;9.40;;;16.10;99.90;;;;;;5083231;28;20222;-81